Buoy 46563

sailwx.info

Track history (hours):
 
Tides and Currents Weather Stations Pressure Air Temp Water Temp Dewpoint Dewpoint Depression Visibility Wind Speed Wind Dir Waves Ship Positions

Drifting buoy 46563

Last reported at 2016-Jul-18 16:00 UTC. Time now 2016-Aug-31 14:18 UTC.
Position N 21°13' W 157°15'.
Warning: this ship's position is 43 days out of date.

Water temperature 26.2 ° C

Date/timePositionNaut miles runAvg speedWind from/ knotsBaromVisibWave heightAir tempDewpointWater temp
2016-Jul-18 16:00N 21°13' W 157°15'0 0.0 26.2
2016-Jul-18 13:00N 21°13' W 157°15'1 0.1 26.3
2016-Jul-18 08:00N 21°13' W 157°15'0 0.3 26.4
2016-Jul-18 07:00N 21°13' W 157°15'0 0.1 26.4
2016-Jul-18 05:00N 21°13' W 157°15'0 0.3 26.5
2016-Jul-18 04:00N 21°13' W 157°15'0 0.0 26.5
2016-Jul-18 03:00N 21°13' W 157°15'0 0.2 26.5
2016-Jul-18 01:00N 21°13' W 157°15'0 0.1 26.7
2016-Jul-17 23:00N 21°13' W 157°15'0 0.1 26.6
2016-Jul-17 18:00N 21°13' W 157°15'0 0.2 26.2
2016-Jul-17 16:00N 21°14' W 157°15'0 0.0 26.2
2016-Jul-17 14:00N 21°14' W 157°15'0 0.2 26.2
2016-Jul-17 13:00N 21°13' W 157°15'0 0.0 26.3
2016-Jul-17 08:00N 21°13' W 157°15'0 0.0 26.4
2016-Jul-17 07:00N 21°13' W 157°15'0 0.1 26.5
2016-Jul-17 05:00N 21°13' W 157°15'0 0.3 26.6
2016-Jul-17 04:00N 21°14' W 157°15'0 0.0 26.6
2016-Jul-17 03:00N 21°14' W 157°15'0 0.1 26.6
2016-Jul-17 01:00N 21°13' W 157°15'0 0.0 26.6
2016-Jul-16 17:00N 21°13' W 157°15'0 0.0 26.2
2016-Jul-16 16:00N 21°13' W 157°15'0 0.0 26.2
2016-Jul-16 15:00N 21°13' W 157°15'0 0.2 26.2
2016-Jul-16 14:00N 21°13' W 157°15'0 0.1 26.2
2016-Jul-16 07:00N 21°13' W 157°15'0 0.4 26.6
2016-Jul-16 06:00N 21°13' W 157°15'0 0.0 26.5
2016-Jul-16 05:00N 21°13' W 157°15'0 0.2 26.5
2016-Jul-16 04:00N 21°14' W 157°14'1 0.6 26.4
2016-Jul-16 03:00N 21°13' W 157°15'0 0.1 26.7
2016-Jul-16 01:00N 21°13' W 157°15'0 0.2 26.5
2016-Jul-16 00:00N 21°14' W 157°15'0 0.2 26.6
2016-Jul-15 23:00N 21°13' W 157°15'0 0.1 26.5
2016-Jul-15 18:00N 21°14' W 157°15'0 0.2 26.1
2016-Jul-15 17:00N 21°13' W 157°15'0 0.1 26.1
2016-Jul-15 16:00N 21°13' W 157°15'0 0.1 26.1
2016-Jul-15 14:00N 21°13' W 157°15'0 0.0 26.2
2016-Jul-15 12:00N 21°13' W 157°15'0 0.1 26.3
2016-Jul-15 08:00N 21°13' W 157°15'0 0.5 26.5
2016-Jul-15 07:00N 21°14' W 157°15'0 0.0 26.6
2016-Jul-15 06:00N 21°14' W 157°15'0 0.3 26.6
2016-Jul-15 05:00N 21°13' W 157°14'1 0.7 26.6
2016-Jul-15 04:00N 21°13' W 157°15'0 0.2 26.7
2016-Jul-15 03:00N 21°13' W 157°15'0 0.1 26.7
2016-Jul-15 01:00N 21°13' W 157°15'0 0.0 26.7
2016-Jul-15 00:00N 21°13' W 157°15'0 0.0 26.7
2016-Jul-14 20:00N 21°13' W 157°15'0 0.1 26.4
2016-Jul-14 19:00N 21°13' W 157°15'0 0.1 26.3
2016-Jul-14 17:00N 21°13' W 157°15'0 0.4 26.2
2016-Jul-14 16:00N 21°14' W 157°15'0 0.2 26.2
2016-Jul-14 15:00N 21°13' W 157°15'0 0.4 26.2
2016-Jul-14 14:00N 21°13' W 157°15'0 0.1 26.2
2016-Jul-14 12:00N 21°13' W 157°15'0 0.0 26.3
2016-Jul-14 08:00N 21°13' W 157°15'0 0.1 26.4
2016-Jul-14 06:00N 21°13' W 157°15'0 0.4 26.5
2016-Jul-14 05:00N 21°13' W 157°15'0 0.0 26.5
2016-Jul-14 04:00N 21°13' W 157°15'0 0.5 26.6
2016-Jul-14 03:00N 21°14' W 157°15'0 0.0 26.5
2016-Jul-14 02:00N 21°14' W 157°15'1 0.6 26.5
2016-Jul-14 01:00N 21°13' W 157°15'0 0.0 26.5
2016-Jul-14 00:00N 21°13' W 157°15'0 0.1 26.4
2016-Jul-13 20:00N 21°13' W 157°15'0 0.0 26.1
2016-Jul-13 13:00N 21°13' W 157°15'0 0.1 26.1
2016-Jul-13 12:00N 21°13' W 157°15'0 0.0 26.1
2016-Jul-13 07:00N 21°13' W 157°15'0 0.4 26.3
2016-Jul-13 06:00N 21°13' W 157°15'0 0.2 26.4
2016-Jul-13 05:00N 21°13' W 157°15'0 0.2 26.4
2016-Jul-13 04:00N 21°13' W 157°15'0 0.1 26.4
2016-Jul-13 03:00N 21°13' W 157°15'0 0.0 26.4
2016-Jul-13 02:00N 21°13' W 157°15'0 0.0 26.3
2016-Jul-13 01:00N 21°13' W 157°15'0 0.0 26.3
2016-Jul-13 00:00N 21°13' W 157°15'0 0.0 26.2
2016-Jul-12 14:00N 21°13' W 157°15'0 0.0 25.7
2016-Jul-12 13:00N 21°13' W 157°15'0 0.1 25.7
2016-Jul-12 12:00N 21°13' W 157°15'0 0.0 25.8
2016-Jul-12 08:00N 21°13' W 157°15'0 0.0 25.9
2016-Jul-12 07:00N 21°13' W 157°15'0 0.1 26.0
2016-Jul-12 05:00N 21°13' W 157°15'0 0.1 26.1
2016-Jul-12 03:00N 21°13' W 157°15'0 0.2 26.1
2016-Jul-12 02:00N 21°13' W 157°15'0 0.1 26.2
2016-Jul-12 00:00N 21°13' W 157°15'0 0.0 26.0
2016-Jul-11 16:00N 21°13' W 157°15'0 0.0 25.6
2016-Jul-11 14:00N 21°13' W 157°15'0 0.0 25.6
2016-Jul-11 13:00N 21°13' W 157°15'0 0.1 25.6
2016-Jul-11 07:00N 21°13' W 157°15'1 0.7 25.9
2016-Jul-11 06:00N 21°13' W 157°15'0 0.5 25.9
2016-Jul-11 05:00N 21°13' W 157°15'0 0.1 25.9
2016-Jul-11 03:00N 21°13' W 157°15'0 0.0 25.9
2016-Jul-11 01:00N 21°13' W 157°15'0 0.0 25.8
2016-Jul-11 00:00N 21°13' W 157°15'0 0.0 25.8
2016-Jul-10 16:00N 21°13' W 157°15'0 0.2 25.4
2016-Jul-10 15:00N 21°13' W 157°15'0 0.1 25.5
2016-Jul-10 12:00N 21°13' W 157°15'0 0.0 25.6
2016-Jul-10 11:00N 21°13' W 157°15'0 0.0 25.6
2016-Jul-10 08:00N 21°13' W 157°15'0 0.2 25.7
2016-Jul-10 07:00N 21°13' W 157°15'0 0.0 25.8
2016-Jul-10 05:00N 21°13' W 157°15'0 0.2 25.9
2016-Jul-10 04:00N 21°13' W 157°15'0 0.0 25.9
2016-Jul-10 03:00N 21°13' W 157°15'0 0.1 25.9
2016-Jul-10 02:00N 21°13' W 157°15'0 0.0 25.9
2016-Jul-10 01:00N 21°13' W 157°15'0 0.1 25.8
2016-Jul-09 23:00N 21°13' W 157°15'0 0.1 25.7
2016-Jul-09 20:00N 21°13' W 157°15'0 0.2 25.5
2016-Jul-09 18:00N 21°13' W 157°15'0 0.0 25.3
2016-Jul-09 17:00N 21°13' W 157°15'0 0.0 25.3
2016-Jul-09 16:00N 21°13' W 157°15'0 0.0 25.4
2016-Jul-09 15:00N 21°13' W 157°15'0 0.2 25.4
2016-Jul-09 14:00N 21°14' W 157°15'0 0.0 25.5
2016-Jul-09 13:00N 21°14' W 157°15'1 0.3 25.5
2016-Jul-09 11:00N 21°13' W 157°15'0 0.1 25.6
2016-Jul-09 08:00N 21°13' W 157°15'0 0.1 25.6
2016-Jul-09 05:00N 21°13' W 157°15'0 0.4 25.9
2016-Jul-09 04:00N 21°13' W 157°15'0 0.0 26.0
2016-Jul-09 03:00N 21°13' W 157°15'0 0.1 26.0
2016-Jul-09 01:00N 21°13' W 157°15'1 0.4 25.9
2016-Jul-08 23:00N 21°14' W 157°16'1 0.1 25.8
2016-Jul-08 16:00N 21°13' W 157°15'   25.5
Track history (hours):
 
Tides and Currents Weather Stations Pressure Air Temp Water Temp Dewpoint Dewpoint Depression Visibility Wind Speed Wind Dir Waves Ship Positions

Drifting buoy 46563

Last reported at 2016-Jul-18 16:00 UTC. Time now 2016-Aug-31 14:18 UTC.
Position N 21°13' W 157°15'.
Warning: this ship's position is 43 days out of date.

Water temperature 26.2 ° C

Date/timePositionNaut miles runAvg speedWind from/ knotsBaromVisibWave heightAir tempDewpointWater temp
2016-Jul-18 16:00N 21°13' W 157°15'0 0.0 26.2
2016-Jul-18 13:00N 21°13' W 157°15'1 0.1 26.3
2016-Jul-18 08:00N 21°13' W 157°15'0 0.3 26.4
2016-Jul-18 07:00N 21°13' W 157°15'0 0.1 26.4
2016-Jul-18 05:00N 21°13' W 157°15'0 0.3 26.5
2016-Jul-18 04:00N 21°13' W 157°15'0 0.0 26.5
2016-Jul-18 03:00N 21°13' W 157°15'0 0.2 26.5
2016-Jul-18 01:00N 21°13' W 157°15'0 0.1 26.7
2016-Jul-17 23:00N 21°13' W 157°15'0 0.1 26.6
2016-Jul-17 18:00N 21°13' W 157°15'0 0.2 26.2
2016-Jul-17 16:00N 21°14' W 157°15'0 0.0 26.2
2016-Jul-17 14:00N 21°14' W 157°15'0 0.2 26.2
2016-Jul-17 13:00N 21°13' W 157°15'0 0.0 26.3
2016-Jul-17 08:00N 21°13' W 157°15'0 0.0 26.4
2016-Jul-17 07:00N 21°13' W 157°15'0 0.1 26.5
2016-Jul-17 05:00N 21°13' W 157°15'0 0.3 26.6
2016-Jul-17 04:00N 21°14' W 157°15'0 0.0 26.6
2016-Jul-17 03:00N 21°14' W 157°15'0 0.1 26.6
2016-Jul-17 01:00N 21°13' W 157°15'0 0.0 26.6
2016-Jul-16 17:00N 21°13' W 157°15'0 0.0 26.2
2016-Jul-16 16:00N 21°13' W 157°15'0 0.0 26.2
2016-Jul-16 15:00N 21°13' W 157°15'0 0.2 26.2
2016-Jul-16 14:00N 21°13' W 157°15'0 0.1 26.2
2016-Jul-16 07:00N 21°13' W 157°15'0 0.4 26.6
2016-Jul-16 06:00N 21°13' W 157°15'0 0.0 26.5
2016-Jul-16 05:00N 21°13' W 157°15'0 0.2 26.5
2016-Jul-16 04:00N 21°14' W 157°14'1 0.6 26.4
2016-Jul-16 03:00N 21°13' W 157°15'0 0.1 26.7
2016-Jul-16 01:00N 21°13' W 157°15'0 0.2 26.5
2016-Jul-16 00:00N 21°14' W 157°15'0 0.2 26.6
2016-Jul-15 23:00N 21°13' W 157°15'0 0.1 26.5
2016-Jul-15 18:00N 21°14' W 157°15'0 0.2 26.1
2016-Jul-15 17:00N 21°13' W 157°15'0 0.1 26.1
2016-Jul-15 16:00N 21°13' W 157°15'0 0.1 26.1
2016-Jul-15 14:00N 21°13' W 157°15'0 0.0 26.2
2016-Jul-15 12:00N 21°13' W 157°15'0 0.1 26.3
2016-Jul-15 08:00N 21°13' W 157°15'0 0.5 26.5
2016-Jul-15 07:00N 21°14' W 157°15'0 0.0 26.6
2016-Jul-15 06:00N 21°14' W 157°15'0 0.3 26.6
2016-Jul-15 05:00N 21°13' W 157°14'1 0.7 26.6
2016-Jul-15 04:00N 21°13' W 157°15'0 0.2 26.7
2016-Jul-15 03:00N 21°13' W 157°15'0 0.1 26.7
2016-Jul-15 01:00N 21°13' W 157°15'0 0.0 26.7
2016-Jul-15 00:00N 21°13' W 157°15'0 0.0 26.7
2016-Jul-14 20:00N 21°13' W 157°15'0 0.1 26.4
2016-Jul-14 19:00N 21°13' W 157°15'0 0.1 26.3
2016-Jul-14 17:00N 21°13' W 157°15'0 0.4 26.2
2016-Jul-14 16:00N 21°14' W 157°15'0 0.2 26.2
2016-Jul-14 15:00N 21°13' W 157°15'0 0.4 26.2
2016-Jul-14 14:00N 21°13' W 157°15'0 0.1 26.2
2016-Jul-14 12:00N 21°13' W 157°15'0 0.0 26.3
2016-Jul-14 08:00N 21°13' W 157°15'0 0.1 26.4
2016-Jul-14 06:00N 21°13' W 157°15'0 0.4 26.5
2016-Jul-14 05:00N 21°13' W 157°15'0 0.0 26.5
2016-Jul-14 04:00N 21°13' W 157°15'0 0.5 26.6
2016-Jul-14 03:00N 21°14' W 157°15'0 0.0 26.5
2016-Jul-14 02:00N 21°14' W 157°15'1 0.6 26.5
2016-Jul-14 01:00N 21°13' W 157°15'0 0.0 26.5
2016-Jul-14 00:00N 21°13' W 157°15'0 0.1 26.4
2016-Jul-13 20:00N 21°13' W 157°15'0 0.0 26.1
2016-Jul-13 13:00N 21°13' W 157°15'0 0.1 26.1
2016-Jul-13 12:00N 21°13' W 157°15'0 0.0 26.1
2016-Jul-13 07:00N 21°13' W 157°15'0 0.4 26.3
2016-Jul-13 06:00N 21°13' W 157°15'0 0.2 26.4
2016-Jul-13 05:00N 21°13' W 157°15'0 0.2 26.4
2016-Jul-13 04:00N 21°13' W 157°15'0 0.1 26.4
2016-Jul-13 03:00N 21°13' W 157°15'0 0.0 26.4
2016-Jul-13 02:00N 21°13' W 157°15'0 0.0 26.3
2016-Jul-13 01:00N 21°13' W 157°15'0 0.0 26.3
2016-Jul-13 00:00N 21°13' W 157°15'0 0.0 26.2
2016-Jul-12 14:00N 21°13' W 157°15'0 0.0 25.7
2016-Jul-12 13:00N 21°13' W 157°15'0 0.1 25.7
2016-Jul-12 12:00N 21°13' W 157°15'0 0.0 25.8
2016-Jul-12 08:00N 21°13' W 157°15'0 0.0 25.9
2016-Jul-12 07:00N 21°13' W 157°15'0 0.1 26.0
2016-Jul-12 05:00N 21°13' W 157°15'0 0.1 26.1
2016-Jul-12 03:00N 21°13' W 157°15'0 0.2 26.1
2016-Jul-12 02:00N 21°13' W 157°15'0 0.1 26.2
2016-Jul-12 00:00N 21°13' W 157°15'0 0.0 26.0
2016-Jul-11 16:00N 21°13' W 157°15'0 0.0 25.6
2016-Jul-11 14:00N 21°13' W 157°15'0 0.0 25.6
2016-Jul-11 13:00N 21°13' W 157°15'0 0.1 25.6
2016-Jul-11 07:00N 21°13' W 157°15'1 0.7 25.9
2016-Jul-11 06:00N 21°13' W 157°15'0 0.5 25.9
2016-Jul-11 05:00N 21°13' W 157°15'0 0.1 25.9
2016-Jul-11 03:00N 21°13' W 157°15'0 0.0 25.9
2016-Jul-11 01:00N 21°13' W 157°15'0 0.0 25.8
2016-Jul-11 00:00N 21°13' W 157°15'0 0.0 25.8
2016-Jul-10 16:00N 21°13' W 157°15'0 0.2 25.4
2016-Jul-10 15:00N 21°13' W 157°15'0 0.1 25.5
2016-Jul-10 12:00N 21°13' W 157°15'0 0.0 25.6
2016-Jul-10 11:00N 21°13' W 157°15'0 0.0 25.6
2016-Jul-10 08:00N 21°13' W 157°15'0 0.2 25.7
2016-Jul-10 07:00N 21°13' W 157°15'0 0.0 25.8
2016-Jul-10 05:00N 21°13' W 157°15'0 0.2 25.9
2016-Jul-10 04:00N 21°13' W 157°15'0 0.0 25.9
2016-Jul-10 03:00N 21°13' W 157°15'0 0.1 25.9
2016-Jul-10 02:00N 21°13' W 157°15'0 0.0 25.9
2016-Jul-10 01:00N 21°13' W 157°15'0 0.1 25.8
2016-Jul-09 23:00N 21°13' W 157°15'0 0.1 25.7
2016-Jul-09 20:00N 21°13' W 157°15'0 0.2 25.5
2016-Jul-09 18:00N 21°13' W 157°15'0 0.0 25.3
2016-Jul-09 17:00N 21°13' W 157°15'0 0.0 25.3
2016-Jul-09 16:00N 21°13' W 157°15'0 0.0 25.4
2016-Jul-09 15:00N 21°13' W 157°15'0 0.2 25.4
2016-Jul-09 14:00N 21°14' W 157°15'0 0.0 25.5
2016-Jul-09 13:00N 21°14' W 157°15'1 0.3 25.5
2016-Jul-09 11:00N 21°13' W 157°15'0 0.1 25.6
2016-Jul-09 08:00N 21°13' W 157°15'0 0.1 25.6
2016-Jul-09 05:00N 21°13' W 157°15'0 0.4 25.9
2016-Jul-09 04:00N 21°13' W 157°15'0 0.0 26.0
2016-Jul-09 03:00N 21°13' W 157°15'0 0.1 26.0
2016-Jul-09 01:00N 21°13' W 157°15'1 0.4 25.9
2016-Jul-08 23:00N 21°14' W 157°16'1 0.1 25.8
2016-Jul-08 16:00N 21°13' W 157°15'   25.5

Dump ship's entire track history